createdAt,value
2023-02-27T02:44:57.491Z,61.48
2023-02-27T02:48:30.162Z,63.22
2023-02-27T03:09:12.301Z,62.26
2023-02-27T03:17:09.043Z,62.80
2023-02-27T03:20:10.353Z,62.85
2023-02-27T03:23:26.630Z,63.10
2023-02-27T03:54:32.746Z,61.66
2023-02-27T03:57:02.808Z,60.84
2023-02-27T04:10:43.676Z,61.31
2023-02-27T04:13:38.883Z,61.22
2023-02-27T04:16:39.967Z,61.56
2023-02-27T04:19:34.329Z,61.54
2023-02-27T04:22:35.171Z,61.09
2023-02-27T04:25:21.007Z,60.51
2023-02-27T04:28:03.726Z,61.24
2023-02-27T04:30:44.245Z,59.29
2023-02-27T04:33:37.512Z,60.19
2023-02-27T04:36:24.052Z,60.25
2023-02-27T04:39:05.961Z,59.97
2023-02-27T04:41:48.380Z,60.04
2023-02-27T04:44:16.742Z,60.05
2023-02-27T04:46:45.357Z,58.84
2023-02-27T04:49:27.851Z,57.80
2023-02-27T04:52:15.835Z,56.44
2023-02-27T04:55:09.988Z,55.54
2023-02-27T04:58:08.372Z,55.12
2023-02-27T05:00:37.351Z,54.74
2023-02-27T05:03:11.292Z,54.90
2023-02-27T05:05:41.928Z,54.98
2023-02-27T05:08:17.156Z,54.64
2023-02-27T05:10:54.619Z,54.84
2023-02-27T05:13:29.473Z,54.81
2023-02-27T05:16:17.108Z,54.21
2023-02-27T05:18:45.626Z,54.55
2023-02-27T05:21:36.723Z,54.15
2023-02-27T05:24:31.171Z,54.04
2023-02-27T05:27:19.888Z,54.79
2023-02-27T05:29:51.166Z,54.42
2023-02-27T05:32:32.193Z,54.87
2023-02-27T05:35:07.657Z,53.58
2023-02-27T05:37:43.882Z,54.05
2023-02-27T05:40:16.591Z,53.23
2023-02-27T05:42:52.822Z,54.40
2023-02-27T05:45:28.522Z,54.11
2023-02-27T05:48:00.817Z,54.09
2023-02-27T05:50:34.291Z,53.47
2023-02-27T05:53:07.868Z,53.33
2023-02-27T05:55:50.454Z,53.71
2023-02-27T05:58:38.100Z,54.43
2023-02-27T06:01:07.734Z,53.60
2023-02-27T06:03:36.501Z,53.88
2023-02-27T06:06:08.260Z,53.86
2023-02-27T06:08:36.037Z,53.50
2023-02-27T06:11:03.518Z,54.27
2023-02-27T06:13:40.179Z,53.50
2023-02-27T06:16:27.069Z,53.99
2023-02-27T06:18:58.637Z,53.39
2023-02-27T06:21:26.259Z,53.49
2023-02-27T06:23:59.932Z,52.87
2023-02-27T06:27:12.606Z,54.12
2023-02-27T06:30:36.088Z,54.56
2023-02-27T06:34:16.162Z,54.35
2023-02-27T06:36:43.868Z,53.77
2023-02-27T06:39:18.348Z,54.35
2023-02-27T06:41:51.356Z,54.59
2023-02-27T06:44:20.120Z,55.09
2023-02-27T06:46:49.782Z,55.34
2023-02-27T06:49:17.385Z,54.84
2023-02-27T06:51:45.200Z,56.20
2023-02-27T06:54:14.597Z,55.85
2023-02-27T06:56:42.221Z,56.46
2023-02-27T06:59:09.854Z,56.78
2023-02-27T07:01:37.489Z,56.96
2023-02-27T07:04:05.144Z,56.73
2023-02-27T07:07:35.228Z,57.03
2023-02-27T07:09:20.397Z,57.20
2023-02-27T07:11:50.874Z,57.46
2023-02-27T07:14:20.721Z,57.50
2023-02-27T07:16:51.109Z,57.30
2023-02-27T07:19:18.709Z,57.53
2023-02-27T07:21:46.377Z,57.40
2023-02-27T07:24:14.179Z,57.55
2023-02-27T07:26:42.054Z,56.48
2023-02-27T07:29:37.744Z,56.88
2023-02-27T07:32:08.218Z,56.80
2023-02-27T07:35:03.883Z,56.18
2023-02-27T07:37:39.562Z,56.53
2023-02-27T07:40:13.130Z,56.59
2023-02-27T07:42:42.603Z,55.34
2023-02-27T07:45:49.007Z,54.84
2023-02-27T07:48:48.640Z,54.93
2023-02-27T07:51:16.228Z,55.18
2023-02-27T07:53:43.733Z,56.44
2023-02-27T07:56:38.550Z,55.06
2023-02-27T07:59:39.003Z,54.93
2023-02-27T08:02:18.931Z,54.72
2023-02-27T08:04:46.511Z,54.98
2023-02-27T08:07:14.272Z,55.21
2023-02-27T08:09:46.114Z,54.43
2023-02-27T08:12:14.023Z,55.83
2023-02-27T08:14:43.106Z,55.21
2023-02-27T08:17:11.049Z,53.26
2023-02-27T08:19:38.657Z,54.18
2023-02-27T08:22:06.297Z,54.65
2023-02-27T08:24:33.781Z,53.46
2023-02-27T08:27:01.618Z,53.30
2023-02-27T08:29:31.011Z,52.53
2023-02-27T08:32:03.219Z,52.84
2023-02-27T08:34:30.998Z,53.36
2023-02-27T08:36:59.224Z,54.80
2023-02-27T08:39:26.925Z,52.64
2023-02-27T08:41:57.293Z,52.06
2023-02-27T08:44:24.936Z,52.08
2023-02-27T08:46:55.578Z,53.32
2023-02-27T08:49:25.282Z,51.91
2023-02-27T08:51:53.674Z,50.94
2023-02-27T08:54:27.996Z,49.65
2023-02-27T08:56:55.884Z,50.00
2023-02-27T08:59:23.997Z,49.18
2023-02-27T09:01:51.766Z,48.58
2023-02-27T09:04:25.492Z,49.37
2023-02-27T09:07:11.828Z,48.14
2023-02-27T09:09:40.551Z,49.08
2023-02-27T09:12:08.548Z,48.26
2023-02-27T09:14:36.776Z,48.12
2023-02-27T09:17:16.140Z,47.48
2023-02-27T09:19:44.411Z,47.27
2023-02-27T09:22:12.107Z,48.39
2023-02-27T09:24:39.726Z,47.18
2023-02-27T09:27:12.402Z,45.55
2023-02-27T09:29:45.867Z,45.94
2023-02-27T09:32:14.808Z,46.17
2023-02-27T09:34:42.477Z,45.22
2023-02-27T09:37:16.038Z,47.55
2023-02-27T09:39:46.005Z,45.35
2023-02-27T09:42:19.455Z,45.34
2023-02-27T09:45:11.276Z,45.95
2023-02-27T09:47:42.509Z,44.96
2023-02-27T09:50:39.317Z,44.34
2023-02-27T09:53:58.770Z,43.38
2023-02-27T10:00:27.552Z,45.22
2023-02-27T10:03:31.407Z,44.62
2023-02-27T10:06:13.698Z,44.36
2023-02-27T10:09:32.359Z,44.59
2023-02-27T10:12:31.439Z,44.94
2023-02-27T10:15:19.106Z,45.25
2023-02-27T10:17:57.018Z,46.18
2023-02-27T10:20:32.468Z,45.51
2023-02-27T10:23:05.516Z,45.21
2023-02-27T10:25:40.157Z,44.53
2023-02-27T10:28:16.176Z,43.97
2023-02-27T10:30:48.318Z,43.76
2023-02-27T10:33:33.875Z,45.48
2023-02-27T10:36:03.577Z,44.16
2023-02-27T10:38:50.013Z,45.93
2023-02-27T10:41:30.919Z,43.91
2023-02-27T10:44:11.110Z,43.58
2023-02-27T10:46:41.054Z,43.19
2023-02-27T10:49:24.968Z,44.59
2023-02-27T10:52:11.284Z,42.50
2023-02-27T10:54:58.978Z,42.51
2023-02-27T10:57:42.855Z,40.89
2023-02-27T11:00:44.238Z,40.40
2023-02-27T11:04:01.111Z,40.33
2023-02-27T11:06:47.934Z,41.24
2023-02-27T11:09:33.804Z,39.83
2023-02-27T11:16:43.964Z,42.41
2023-02-27T11:26:53.935Z,39.15
2023-02-27T11:30:52.701Z,40.48
2023-02-27T11:37:18.969Z,41.80
2023-02-27T11:40:37.933Z,40.92
2023-02-27T11:43:17.162Z,40.63
2023-02-27T11:46:17.649Z,40.50
2023-02-27T11:53:56.808Z,40.54
2023-02-27T12:04:48.056Z,40.23
2023-02-27T12:13:43.358Z,39.65
2023-02-27T12:16:23.656Z,40.75
2023-02-27T12:26:30.903Z,39.84
2023-02-27T12:36:43.998Z,39.16
2023-02-27T13:01:52.265Z,39.70
2023-02-27T13:09:33.314Z,39.62
2023-02-27T13:20:43.238Z,39.09
2023-02-27T13:27:25.682Z,39.59
2023-02-27T13:30:59.127Z,39.99
2023-02-27T13:33:41.479Z,38.93
2023-02-27T13:36:24.552Z,39.33
2023-02-27T13:39:53.112Z,40.39
2023-02-27T13:42:49.919Z,38.78
2023-02-27T13:49:45.080Z,38.62
2023-02-27T13:53:08.779Z,40.39
2023-02-27T13:55:37.146Z,39.36
2023-02-27T14:01:57.376Z,39.90
2023-02-27T14:04:33.168Z,40.27
2023-02-27T14:08:04.725Z,40.26
2023-02-27T14:10:47.076Z,40.27
2023-02-27T14:13:46.597Z,40.67
2023-02-27T14:21:36.040Z,41.10
2023-02-27T14:24:44.848Z,41.26
2023-02-27T14:28:11.571Z,42.03
2023-02-27T14:31:19.676Z,41.59
2023-02-27T14:34:08.909Z,42.03
2023-02-27T14:36:54.773Z,41.56
2023-02-27T14:39:28.377Z,41.13
2023-02-27T14:42:59.688Z,40.54
2023-02-27T14:46:10.262Z,41.92
2023-02-27T14:49:12.671Z,41.98
2023-02-27T14:51:40.641Z,41.98
2023-02-27T14:54:55.107Z,40.84
2023-02-27T15:02:02.117Z,42.76
2023-02-27T15:05:07.910Z,42.08
2023-02-27T15:08:29.431Z,42.78
2023-02-27T15:11:01.002Z,42.45
2023-02-27T15:13:34.511Z,42.90
2023-02-27T15:16:35.773Z,43.51
2023-02-27T15:19:15.676Z,43.87
2023-02-27T15:22:11.270Z,43.35
2023-02-27T15:25:10.642Z,44.16
2023-02-27T15:28:17.808Z,44.35
2023-02-27T15:30:53.240Z,43.23
2023-02-27T15:33:31.218Z,43.71
2023-02-27T15:35:59.726Z,43.47
2023-02-27T15:38:29.383Z,43.23
2023-02-27T15:40:58.707Z,43.40
2023-02-27T15:43:28.314Z,42.84
2023-02-27T15:46:01.047Z,43.27
2023-02-27T15:49:03.556Z,42.84
2023-02-27T15:51:31.222Z,43.15
2023-02-27T15:54:59.299Z,42.89
2023-02-27T15:57:52.966Z,43.24
2023-02-27T16:00:35.317Z,42.93
2023-02-27T16:03:10.925Z,43.82
2023-02-27T16:05:44.955Z,44.79
2023-02-27T16:09:15.428Z,44.42
2023-02-27T16:11:43.209Z,44.84
2023-02-27T16:14:47.777Z,44.63
2023-02-27T16:17:37.231Z,44.93
2023-02-27T16:20:55.962Z,45.03
2023-02-27T16:23:33.708Z,46.77
2023-02-27T16:26:58.951Z,47.45
2023-02-27T16:29:51.836Z,47.01
2023-02-27T16:33:47.150Z,46.71
2023-02-27T16:40:42.562Z,47.52
2023-02-27T16:43:26.474Z,48.06
2023-02-27T16:45:58.821Z,47.16
2023-02-27T16:48:28.947Z,46.90
2023-02-27T16:50:58.704Z,46.63
2023-02-27T16:53:29.970Z,47.62
2023-02-27T16:55:58.271Z,47.95
2023-02-27T16:58:26.022Z,48.72
2023-02-27T17:00:53.773Z,49.62
2023-02-27T17:03:56.354Z,50.27
2023-02-27T17:06:35.266Z,50.52
2023-02-27T17:09:12.963Z,50.93
2023-02-27T17:12:11.941Z,50.89
2023-02-27T17:14:59.274Z,50.40
2023-02-27T17:17:47.719Z,50.93
2023-02-27T17:21:03.677Z,51.14
2023-02-27T17:24:02.933Z,51.08
2023-02-27T17:26:39.908Z,51.10
2023-02-27T17:29:21.033Z,51.33
2023-02-27T17:31:59.564Z,51.82
2023-02-27T17:35:45.426Z,51.06
2023-02-27T17:39:14.318Z,52.02
2023-02-27T17:42:38.418Z,51.91
2023-02-27T17:45:37.622Z,51.97
2023-02-27T17:51:41.331Z,54.07
2023-02-27T17:54:09.060Z,53.48
2023-02-27T17:56:39.704Z,52.06
2023-02-27T17:59:14.633Z,52.26
2023-02-27T18:02:32.776Z,52.37
2023-02-27T18:05:55.472Z,52.90
2023-02-27T18:09:12.385Z,52.75
2023-02-27T18:12:08.287Z,53.13
2023-02-27T18:14:39.433Z,53.14
2023-02-27T18:17:12.674Z,53.78
2023-02-27T18:22:37.382Z,53.95
2023-02-27T18:25:10.657Z,54.17
2023-02-27T18:30:35.631Z,54.26
2023-02-27T18:33:47.713Z,53.79
2023-02-27T18:36:20.625Z,54.98
2023-02-27T18:39:01.046Z,54.54
2023-02-27T18:41:49.472Z,55.20
2023-02-27T18:44:39.043Z,54.79
2023-02-27T18:47:13.429Z,54.55
2023-02-27T18:49:41.198Z,54.51
2023-02-27T18:52:08.879Z,54.99
2023-02-27T18:54:36.532Z,54.44
2023-02-27T18:57:04.864Z,54.05
2023-02-27T19:00:16.918Z,54.69
2023-02-27T19:02:45.159Z,54.87
2023-02-27T19:05:20.775Z,55.27
2023-02-27T19:07:55.878Z,55.45
2023-02-27T19:10:28.561Z,54.77
2023-02-27T19:12:56.901Z,55.07
2023-02-27T19:15:24.478Z,54.99
2023-02-27T19:17:52.160Z,54.84
2023-02-27T19:20:21.674Z,55.07
2023-02-27T19:22:53.599Z,55.26
2023-02-27T19:25:27.471Z,54.57
2023-02-27T19:27:58.186Z,54.85
2023-02-27T19:30:26.057Z,56.35
2023-02-27T19:32:59.650Z,55.54
2023-02-27T19:35:31.163Z,56.69
2023-02-27T19:38:06.076Z,57.07
2023-02-27T19:40:41.136Z,56.35
2023-02-27T19:43:08.770Z,57.05
2023-02-27T19:45:42.093Z,57.50
2023-02-27T19:48:15.237Z,57.64
2023-02-27T19:51:07.980Z,57.31
2023-02-27T19:54:18.140Z,57.75
2023-02-27T19:57:10.437Z,57.59
2023-02-27T19:59:58.579Z,58.41
2023-02-27T20:02:46.840Z,57.92
2023-02-27T20:05:20.588Z,57.48
2023-02-27T20:07:48.573Z,58.06
2023-02-27T20:10:29.384Z,57.72
2023-02-27T20:12:58.004Z,58.53
2023-02-27T20:15:25.558Z,58.53
2023-02-27T20:17:53.162Z,59.10
2023-02-27T20:20:23.122Z,57.77
2023-02-27T20:22:52.474Z,57.62
2023-02-27T20:25:20.195Z,57.09
2023-02-27T20:27:48.068Z,57.16
2023-02-27T20:30:15.826Z,57.49
2023-02-27T20:32:48.138Z,57.36
2023-02-27T20:35:16.018Z,57.86
2023-02-27T20:37:49.765Z,56.83
2023-02-27T20:40:44.589Z,56.91
2023-02-27T20:43:15.395Z,57.47
2023-02-27T20:46:02.935Z,57.37
2023-02-27T20:48:31.009Z,57.81
2023-02-27T20:51:57.844Z,57.96
2023-02-27T20:56:07.281Z,57.12
2023-02-27T20:59:41.226Z,58.21
2023-02-27T21:02:12.623Z,58.03
2023-02-27T21:05:35.986Z,57.94
2023-02-27T21:08:28.137Z,58.35
2023-02-27T21:11:19.767Z,57.91
2023-02-27T21:13:47.474Z,58.13
2023-02-27T21:16:16.627Z,57.46
2023-02-27T21:18:45.059Z,58.32
2023-02-27T21:21:18.544Z,58.89
2023-02-27T21:23:46.162Z,58.74
2023-02-27T21:26:39.241Z,58.58
2023-02-27T21:29:13.185Z,58.33
2023-02-27T21:31:42.418Z,59.04
2023-02-27T21:34:14.230Z,59.16
2023-02-27T21:36:43.701Z,58.12
2023-02-27T21:39:31.480Z,58.63
2023-02-27T21:42:02.120Z,58.74
2023-02-27T21:44:29.904Z,58.88
2023-02-27T21:46:59.305Z,59.19
2023-02-27T21:49:28.898Z,59.76
2023-02-27T21:51:58.599Z,60.15
2023-02-27T21:54:26.381Z,60.02
2023-02-27T21:56:54.076Z,60.07
2023-02-27T21:59:21.822Z,59.49
2023-02-27T22:01:49.565Z,59.71
2023-02-27T22:04:19.095Z,59.30
2023-02-27T22:06:48.180Z,59.25
2023-02-27T22:12:52.495Z,60.18
2023-02-27T22:15:44.598Z,60.61
2023-02-27T22:18:29.199Z,60.04
2023-02-27T22:21:28.895Z,60.48
2023-02-27T22:23:57.797Z,59.57
2023-02-27T22:26:28.282Z,60.73
2023-02-27T22:28:57.406Z,60.27
2023-02-27T22:34:47.878Z,59.79
2023-02-27T22:37:17.602Z,60.00
2023-02-27T22:46:17.448Z,60.59
2023-02-27T22:48:45.082Z,60.64
2023-02-27T22:51:14.617Z,61.57
2023-02-27T22:53:43.558Z,61.98
2023-02-27T22:56:16.251Z,61.57
2023-02-27T22:58:45.322Z,61.87
2023-02-27T23:01:14.510Z,62.43
2023-02-27T23:03:43.209Z,63.01
2023-02-27T23:06:14.411Z,62.78
2023-02-27T23:08:42.519Z,62.92
2023-02-27T23:11:11.460Z,62.85
2023-02-27T23:13:39.099Z,63.13
2023-02-27T23:16:14.078Z,62.59
2023-02-27T23:18:46.090Z,62.47
2023-02-27T23:21:16.138Z,62.70
2023-02-27T23:23:44.457Z,62.69
2023-02-27T23:26:12.789Z,61.83
2023-02-27T23:28:40.683Z,61.04
2023-02-27T23:31:09.688Z,60.69
2023-02-27T23:33:37.332Z,59.64
2023-02-27T23:36:05.229Z,59.06
2023-02-27T23:38:32.829Z,58.29
2023-02-27T23:41:06.560Z,57.61
2023-02-27T23:43:53.245Z,57.45
2023-02-27T23:46:23.691Z,56.38
2023-02-27T23:48:51.236Z,55.68
2023-02-27T23:51:18.705Z,56.53
2023-02-27T23:53:46.317Z,56.23
2023-02-27T23:56:16.879Z,57.07
2023-02-27T23:58:45.709Z,57.48
